sensor_id;sensor_type;location;lat;lon;timestamp;pressure;altitude;pressure_sealevel;temperature;humidity
51468;BME280;37545;45.302;-122.946;2023-03-15T00:01:19;99818.28;;;14.00;39.45
51468;BME280;37545;45.302;-122.946;2023-03-15T00:03:48;99815.69;;;14.08;40.13
51468;BME280;37545;45.302;-122.946;2023-03-15T00:06:17;99814.81;;;14.12;41.33
51468;BME280;37545;45.302;-122.946;2023-03-15T00:08:45;99815.69;;;14.11;41.03
51468;BME280;37545;45.302;-122.946;2023-03-15T00:11:14;99814.81;;;14.14;39.53
51468;BME280;37545;45.302;-122.946;2023-03-15T00:13:43;99813.97;;;14.13;39.04
51468;BME280;37545;45.302;-122.946;2023-03-15T00:16:12;99807.00;;;14.01;38.19
51468;BME280;37545;45.302;-122.946;2023-03-15T00:18:45;99813.09;;;14.00;39.04
51468;BME280;37545;45.302;-122.946;2023-03-15T00:21:14;99807.88;;;13.94;39.31
51468;BME280;37545;45.302;-122.946;2023-03-15T00:23:43;99811.34;;;13.87;41.41
51468;BME280;37545;45.302;-122.946;2023-03-15T00:26:12;99807.88;;;13.82;41.27
51468;BME280;37545;45.302;-122.946;2023-03-15T00:28:40;99809.59;;;13.78;38.62
51468;BME280;37545;45.302;-122.946;2023-03-15T00:31:14;99812.19;;;13.75;39.23
51468;BME280;37545;45.302;-122.946;2023-03-15T00:33:44;99809.59;;;13.71;38.36
51468;BME280;37545;45.302;-122.946;2023-03-15T00:36:13;99811.28;;;13.67;39.37
51468;BME280;37545;45.302;-122.946;2023-03-15T00:38:42;99820.84;;;13.67;38.86
51468;BME280;37545;45.302;-122.946;2023-03-15T00:41:12;99819.97;;;13.69;38.34
51468;BME280;37545;45.302;-122.946;2023-03-15T00:43:41;99816.50;;;13.72;39.20
51468;BME280;37545;45.302;-122.946;2023-03-15T00:46:10;99817.41;;;13.75;39.62
51468;BME280;37545;45.302;-122.946;2023-03-15T00:48:39;99820.00;;;13.77;37.92
51468;BME280;37545;45.302;-122.946;2023-03-15T00:51:10;99822.59;;;13.83;37.75
51468;BME280;37545;45.302;-122.946;2023-03-15T00:53:41;99822.59;;;13.85;39.36
51468;BME280;37545;45.302;-122.946;2023-03-15T00:56:11;99822.59;;;13.85;38.47
51468;BME280;37545;45.302;-122.946;2023-03-15T00:58:41;99822.59;;;13.83;39.21
51468;BME280;37545;45.302;-122.946;2023-03-15T01:01:12;99820.88;;;13.83;38.00
51468;BME280;37545;45.302;-122.946;2023-03-15T01:03:41;99824.34;;;13.84;36.61
51468;BME280;37545;45.302;-122.946;2023-03-15T01:06:13;99831.25;;;13.85;37.11
51468;BME280;37545;45.302;-122.946;2023-03-15T01:08:42;99827.81;;;13.80;37.20
51468;BME280;37545;45.302;-122.946;2023-03-15T01:11:13;99832.09;;;13.69;37.21
51468;BME280;37545;45.302;-122.946;2023-03-15T01:13:42;99828.63;;;13.64;38.79
51468;BME280;37545;45.302;-122.946;2023-03-15T01:16:12;99832.94;;;13.51;38.59
51468;BME280;37545;45.302;-122.946;2023-03-15T01:18:44;99839.00;;;13.51;37.84
51468;BME280;37545;45.302;-122.946;2023-03-15T01:21:19;99835.53;;;13.48;38.20
51468;BME280;37545;45.302;-122.946;2023-03-15T01:23:48;99838.13;;;13.43;38.94
51468;BME280;37545;45.302;-122.946;2023-03-15T01:26:17;99845.88;;;13.37;40.87
51468;BME280;37545;45.302;-122.946;2023-03-15T01:28:46;99844.13;;;13.31;40.85
51468;BME280;37545;45.302;-122.946;2023-03-15T01:31:18;99850.16;;;13.24;41.13
51468;BME280;37545;45.302;-122.946;2023-03-15T01:33:47;99854.44;;;13.17;41.36
51468;BME280;37545;45.302;-122.946;2023-03-15T01:36:17;99852.69;;;13.13;42.24
51468;BME280;37545;45.302;-122.946;2023-03-15T01:38:46;99857.84;;;13.07;41.96
51468;BME280;37545;45.302;-122.946;2023-03-15T01:41:17;99861.28;;;13.00;41.27
51468;BME280;37545;45.302;-122.946;2023-03-15T01:43:51;99869.88;;;12.90;42.27
51468;BME280;37545;45.302;-122.946;2023-03-15T01:46:28;99873.28;;;12.79;42.30
51468;BME280;37545;45.302;-122.946;2023-03-15T01:49:03;99876.69;;;12.72;42.46
51468;BME280;37545;45.302;-122.946;2023-03-15T01:51:36;99876.63;;;12.63;42.24
51468;BME280;37545;45.302;-122.946;2023-03-15T01:54:09;99877.44;;;12.56;45.51
51468;BME280;37545;45.302;-122.946;2023-03-15T01:56:42;99883.44;;;12.49;43.50
51468;BME280;37545;45.302;-122.946;2023-03-15T01:59:14;99892.00;;;12.39;43.70
51468;BME280;37545;45.302;-122.946;2023-03-15T02:01:44;99897.97;;;12.30;43.00
51468;BME280;37545;45.302;-122.946;2023-03-15T02:04:17;99910.03;;;12.22;43.07
51468;BME280;37545;45.302;-122.946;2023-03-15T02:06:52;99913.41;;;12.14;43.79
51468;BME280;37545;45.302;-122.946;2023-03-15T02:09:28;99920.22;;;12.05;44.12
51468;BME280;37545;45.302;-122.946;2023-03-15T02:12:01;99924.47;;;11.97;45.48
51468;BME280;37545;45.302;-122.946;2023-03-15T02:14:32;99928.59;;;11.82;45.73
51468;BME280;37545;45.302;-122.946;2023-03-15T02:17:01;99929.31;;;11.69;45.77
51468;BME280;37545;45.302;-122.946;2023-03-15T02:19:39;99932.66;;;11.60;45.72
51468;BME280;37545;45.302;-122.946;2023-03-15T02:22:21;99934.31;;;11.53;45.80
51468;BME280;37545;45.302;-122.946;2023-03-15T02:24:54;99941.13;;;11.45;45.86
51468;BME280;37545;45.302;-122.946;2023-03-15T02:27:30;99944.47;;;11.38;46.04
51468;BME280;37545;45.302;-122.946;2023-03-15T02:30:00;99954.72;;;11.30;46.20
51468;BME280;37545;45.302;-122.946;2023-03-15T02:32:30;99957.22;;;11.23;47.47
51468;BME280;37545;45.302;-122.946;2023-03-15T02:34:59;99963.16;;;11.16;47.67
51468;BME280;37545;45.302;-122.946;2023-03-15T02:37:27;99954.31;;;11.01;49.17
51468;BME280;37545;45.302;-122.946;2023-03-15T02:39:56;99968.03;;;10.96;48.54
51468;BME280;37545;45.302;-122.946;2023-03-15T02:42:25;99978.22;;;10.85;48.93
51468;BME280;37545;45.302;-122.946;2023-03-15T02:44:56;99979.84;;;10.78;50.47
51468;BME280;37545;45.302;-122.946;2023-03-15T02:47:27;99984.91;;;10.71;51.52
51468;BME280;37545;45.302;-122.946;2023-03-15T02:49:57;100001.13;;;10.62;51.35
51468;BME280;37545;45.302;-122.946;2023-03-15T02:52:26;100011.28;;;10.51;50.87
51468;BME280;37545;45.302;-122.946;2023-03-15T02:54:54;100018.81;;;10.39;50.65
51468;BME280;37545;45.302;-122.946;2023-03-15T02:57:23;100029.00;;;10.30;52.05
51468;BME280;37545;45.302;-122.946;2023-03-15T02:59:52;100027.88;;;10.18;53.22
51468;BME280;37545;45.302;-122.946;2023-03-15T03:02:22;100032.88;;;10.09;54.63
51468;BME280;37545;45.302;-122.946;2023-03-15T03:04:51;100038.72;;;9.99;54.81
51468;BME280;37545;45.302;-122.946;2023-03-15T03:07:20;100048.91;;;9.93;55.15
51468;BME280;37545;45.302;-122.946;2023-03-15T03:09:48;100052.22;;;9.87;56.49
51468;BME280;37545;45.302;-122.946;2023-03-15T03:12:17;100059.88;;;9.82;56.74
51468;BME280;37545;45.302;-122.946;2023-03-15T03:14:45;100064.84;;;9.73;57.61
51468;BME280;37545;45.302;-122.946;2023-03-15T03:17:14;100067.31;;;9.67;58.05
51468;BME280;37545;45.302;-122.946;2023-03-15T03:19:44;100071.47;;;9.60;57.95
51468;BME280;37545;45.302;-122.946;2023-03-15T03:22:13;100080.81;;;9.54;57.95
51468;BME280;37545;45.302;-122.946;2023-03-15T03:24:41;100086.69;;;9.48;58.15
51468;BME280;37545;45.302;-122.946;2023-03-15T03:27:11;100092.59;;;9.42;58.61
51468;BME280;37545;45.302;-122.946;2023-03-15T03:29:40;100095.88;;;9.35;59.24
51468;BME280;37545;45.302;-122.946;2023-03-15T03:32:09;100100.06;;;9.32;58.85
51468;BME280;37545;45.302;-122.946;2023-03-15T03:34:38;100118.03;;;9.27;59.50
51468;BME280;37545;45.302;-122.946;2023-03-15T03:37:08;100121.31;;;9.20;60.24
51468;BME280;37545;45.302;-122.946;2023-03-15T03:39:37;100123.78;;;9.15;60.27
51468;BME280;37545;45.302;-122.946;2023-03-15T03:42:05;100123.66;;;9.11;60.58
51468;BME280;37545;45.302;-122.946;2023-03-15T03:44:34;100124.34;;;9.04;60.55
51468;BME280;37545;45.302;-122.946;2023-03-15T03:47:03;100134.59;;;9.00;60.98
51468;BME280;37545;45.302;-122.946;2023-03-15T03:49:31;100145.66;;;8.96;61.46
51468;BME280;37545;45.302;-122.946;2023-03-15T03:52:00;100149.84;;;8.91;61.60
51468;BME280;37545;45.302;-122.946;2023-03-15T03:54:31;100154.81;;;8.85;61.47
51468;BME280;37545;45.302;-122.946;2023-03-15T03:56:59;100160.72;;;8.81;62.13
51468;BME280;37545;45.302;-122.946;2023-03-15T03:59:28;100171.78;;;8.77;62.56
51468;BME280;37545;45.302;-122.946;2023-03-15T04:01:56;100171.72;;;8.74;63.02
51468;BME280;37545;45.302;-122.946;2023-03-15T04:04:25;100182.81;;;8.71;63.20
51468;BME280;37545;45.302;-122.946;2023-03-15T04:06:55;100193.94;;;8.69;62.23
51468;BME280;37545;45.302;-122.946;2023-03-15T04:09:24;100209.28;;;8.66;62.89
51468;BME280;37545;45.302;-122.946;2023-03-15T04:11:54;100210.00;;;8.60;64.89
51468;BME280;37545;45.302;-122.946;2023-03-15T04:14:22;100226.88;;;8.49;67.31
51468;BME280;37545;45.302;-122.946;2023-03-15T04:16:51;100231.66;;;8.36;67.01
51468;BME280;37545;45.302;-122.946;2023-03-15T04:19:20;100237.34;;;8.26;67.31
51468;BME280;37545;45.302;-122.946;2023-03-15T04:21:48;100254.16;;;8.15;68.06
51468;BME280;37545;45.302;-122.946;2023-03-15T04:24:18;100260.03;;;8.09;67.60
51468;BME280;37545;45.302;-122.946;2023-03-15T04:26:46;100265.13;;;8.08;66.96
51468;BME280;37545;45.302;-122.946;2023-03-15T04:29:16;100264.03;;;8.01;68.13
51468;BME280;37545;45.302;-122.946;2023-03-15T04:31:45;100267.34;;;7.97;67.78
51468;BME280;37545;45.302;-122.946;2023-03-15T04:34:14;100272.56;;;7.98;68.21
51468;BME280;37545;45.302;-122.946;2023-03-15T04:36:42;100282.00;;;7.98;70.32
51468;BME280;37545;45.302;-122.946;2023-03-15T04:39:11;100282.78;;;7.95;70.92
51468;BME280;37545;45.302;-122.946;2023-03-15T04:41:39;100289.41;;;7.89;69.14
51468;BME280;37545;45.302;-122.946;2023-03-15T04:44:08;100291.63;;;7.78;69.64
51468;BME280;37545;45.302;-122.946;2023-03-15T04:46:38;100295.81;;;7.74;70.37
51468;BME280;37545;45.302;-122.946;2023-03-15T04:49:06;100296.69;;;7.75;70.89
51468;BME280;37545;45.302;-122.946;2023-03-15T04:51:35;100302.72;;;7.75;70.53
51468;BME280;37545;45.302;-122.946;2023-03-15T04:54:04;100306.94;;;7.73;70.02
51468;BME280;37545;45.302;-122.946;2023-03-15T04:56:32;100309.50;;;7.73;70.04
51468;BME280;37545;45.302;-122.946;2023-03-15T04:59:02;100318.06;;;7.72;70.16
51468;BME280;37545;45.302;-122.946;2023-03-15T05:01:31;100322.06;;;7.64;72.65
51468;BME280;37545;45.302;-122.946;2023-03-15T05:04:01;100327.78;;;7.55;74.04
51468;BME280;37545;45.302;-122.946;2023-03-15T05:06:30;100333.66;;;7.51;74.19
51468;BME280;37545;45.302;-122.946;2023-03-15T05:08:58;100331.72;;;7.46;74.36
51468;BME280;37545;45.302;-122.946;2023-03-15T05:11:27;100341.09;;;7.44;74.27
51468;BME280;37545;45.302;-122.946;2023-03-15T05:13:56;100348.72;;;7.41;72.75
51468;BME280;37545;45.302;-122.946;2023-03-15T05:16:24;100348.63;;;7.38;77.08
51468;BME280;37545;45.302;-122.946;2023-03-15T05:18:53;100365.56;;;7.32;76.04
51468;BME280;37545;45.302;-122.946;2023-03-15T05:21:24;100366.41;;;7.31;74.74
51468;BME280;37545;45.302;-122.946;2023-03-15T05:23:52;100381.75;;;7.28;75.68
51468;BME280;37545;45.302;-122.946;2023-03-15T05:26:21;100388.47;;;7.25;77.69
51468;BME280;37545;45.302;-122.946;2023-03-15T05:28:50;100395.91;;;7.17;77.15
51468;BME280;37545;45.302;-122.946;2023-03-15T05:31:18;100399.97;;;7.12;78.34
51468;BME280;37545;45.302;-122.946;2023-03-15T05:33:47;100400.53;;;7.03;80.62
51468;BME280;37545;45.302;-122.946;2023-03-15T05:36:15;100405.25;;;6.92;82.48
51468;BME280;37545;45.302;-122.946;2023-03-15T05:38:45;100417.88;;;6.86;83.45
51468;BME280;37545;45.302;-122.946;2023-03-15T05:41:14;100420.09;;;6.77;85.24
51468;BME280;37545;45.302;-122.946;2023-03-15T05:43:43;100427.72;;;6.76;84.34
51468;BME280;37545;45.302;-122.946;2023-03-15T05:46:12;100435.25;;;6.71;83.55
51468;BME280;37545;45.302;-122.946;2023-03-15T05:48:40;100445.06;;;6.59;81.86
51468;BME280;37545;45.302;-122.946;2023-03-15T05:51:09;100437.09;;;6.53;81.86
51468;BME280;37545;45.302;-122.946;2023-03-15T05:53:38;100449.03;;;6.50;81.68
51468;BME280;37545;45.302;-122.946;2023-03-15T05:56:09;100453.03;;;6.44;81.74
51468;BME280;37545;45.302;-122.946;2023-03-15T05:58:37;100452.13;;;6.43;82.01
51468;BME280;37545;45.302;-122.946;2023-03-15T06:01:06;100459.81;;;6.42;81.75
51468;BME280;37545;45.302;-122.946;2023-03-15T06:03:34;100464.88;;;6.40;82.33
51468;BME280;37545;45.302;-122.946;2023-03-15T06:06:03;100475.16;;;6.40;81.31
51468;BME280;37545;45.302;-122.946;2023-03-15T06:08:32;100474.22;;;6.38;80.97
51468;BME280;37545;45.302;-122.946;2023-03-15T06:11:00;100483.69;;;6.39;81.49
51468;BME280;37545;45.302;-122.946;2023-03-15T06:13:30;100489.56;;;6.37;81.31
51468;BME280;37545;45.302;-122.946;2023-03-15T06:15:59;100498.00;;;6.34;80.71
51468;BME280;37545;45.302;-122.946;2023-03-15T06:18:27;100494.81;;;6.19;84.61
51468;BME280;37545;45.302;-122.946;2023-03-15T06:20:56;100499.22;;;6.02;86.61
51468;BME280;37545;45.302;-122.946;2023-03-15T06:23:25;100516.75;;;5.93;86.92
51468;BME280;37545;45.302;-122.946;2023-03-15T06:25:53;100521.56;;;5.85;86.76
51468;BME280;37545;45.302;-122.946;2023-03-15T06:28:22;100523.28;;;5.86;85.88
51468;BME280;37545;45.302;-122.946;2023-03-15T06:30:52;100525.00;;;5.85;85.54
51468;BME280;37545;45.302;-122.946;2023-03-15T06:33:20;100522.50;;;5.87;85.02
51468;BME280;37545;45.302;-122.946;2023-03-15T06:35:49;100531.81;;;5.85;84.52
51468;BME280;37545;45.302;-122.946;2023-03-15T06:38:18;100539.91;;;5.75;85.80
51468;BME280;37545;45.302;-122.946;2023-03-15T06:40:46;100553.16;;;5.64;86.17
51468;BME280;37545;45.302;-122.946;2023-03-15T06:43:15;100560.63;;;5.60;84.86
51468;BME280;37545;45.302;-122.946;2023-03-15T06:45:45;100564.91;;;5.59;84.35
51468;BME280;37545;45.302;-122.946;2023-03-15T06:48:15;100564.72;;;5.56;85.01
51468;BME280;37545;45.302;-122.946;2023-03-15T06:50:44;100568.03;;;5.54;85.31
51468;BME280;37545;45.302;-122.946;2023-03-15T06:53:13;100572.28;;;5.53;85.19
51468;BME280;37545;45.302;-122.946;2023-03-15T06:55:42;100579.88;;;5.50;85.30
51468;BME280;37545;45.302;-122.946;2023-03-15T06:58:11;100587.47;;;5.49;85.66
51468;BME280;37545;45.302;-122.946;2023-03-15T07:00:39;100596.50;;;5.40;85.86
51468;BME280;37545;45.302;-122.946;2023-03-15T07:03:08;100603.75;;;5.31;87.23
51468;BME280;37545;45.302;-122.946;2023-03-15T07:05:38;100601.66;;;5.22;86.77
51468;BME280;37545;45.302;-122.946;2023-03-15T07:08:07;100616.81;;;5.18;86.74
51468;BME280;37545;45.302;-122.946;2023-03-15T07:10:35;100615.91;;;5.17;87.47
51468;BME280;37545;45.302;-122.946;2023-03-15T07:13:04;100627.94;;;5.18;87.80
51468;BME280;37545;45.302;-122.946;2023-03-15T07:15:32;100630.41;;;5.17;87.37
51468;BME280;37545;45.302;-122.946;2023-03-15T07:18:03;100625.16;;;5.14;86.63
51468;BME280;37545;45.302;-122.946;2023-03-15T07:20:31;100631.88;;;5.12;86.32
51468;BME280;37545;45.302;-122.946;2023-03-15T07:23:01;100642.56;;;5.03;87.89
51468;BME280;37545;45.302;-122.946;2023-03-15T07:25:30;100650.03;;;4.98;88.44
51468;BME280;37545;45.302;-122.946;2023-03-15T07:28:04;100658.31;;;4.93;89.28
51468;BME280;37545;45.302;-122.946;2023-03-15T07:30:34;100656.47;;;4.90;89.40
51468;BME280;37545;45.302;-122.946;2023-03-15T07:33:02;100668.38;;;4.90;88.42
51468;BME280;37545;45.302;-122.946;2023-03-15T07:35:31;100678.59;;;4.88;88.21
51468;BME280;37545;45.302;-122.946;2023-03-15T07:38:01;100685.22;;;4.85;87.95
51468;BME280;37545;45.302;-122.946;2023-03-15T07:40:29;100699.63;;;4.82;87.90
51468;BME280;37545;45.302;-122.946;2023-03-15T07:42:58;100698.63;;;4.79;88.31
51468;BME280;37545;45.302;-122.946;2023-03-15T07:45:26;100701.72;;;4.73;88.17
51468;BME280;37545;45.302;-122.946;2023-03-15T07:47:55;100711.50;;;4.64;89.29
51468;BME280;37545;45.302;-122.946;2023-03-15T07:50:23;100710.38;;;4.59;88.85
51468;BME280;37545;45.302;-122.946;2023-03-15T07:52:52;100721.38;;;4.56;88.80
51468;BME280;37545;45.302;-122.946;2023-03-15T07:55:22;100722.97;;;4.54;88.55
51468;BME280;37545;45.302;-122.946;2023-03-15T07:57:51;100728.47;;;4.46;88.89
51468;BME280;37545;45.302;-122.946;2023-03-15T08:00:20;100734.94;;;4.39;90.15
51468;BME280;37545;45.302;-122.946;2023-03-15T08:02:49;100736.47;;;4.35;90.33
51468;BME280;37545;45.302;-122.946;2023-03-15T08:05:17;100748.31;;;4.33;90.55
51468;BME280;37545;45.302;-122.946;2023-03-15T08:07:46;100749.91;;;4.31;90.82
51468;BME280;37545;45.302;-122.946;2023-03-15T08:10:16;100754.84;;;4.28;90.29
51468;BME280;37545;45.302;-122.946;2023-03-15T08:12:46;100752.22;;;4.27;91.11
51468;BME280;37545;45.302;-122.946;2023-03-15T08:15:15;100750.44;;;4.26;90.46
51468;BME280;37545;45.302;-122.946;2023-03-15T08:17:45;100759.72;;;4.24;91.08
51468;BME280;37545;45.302;-122.946;2023-03-15T08:20:14;100759.66;;;4.22;90.47
51468;BME280;37545;45.302;-122.946;2023-03-15T08:22:44;100762.84;;;4.18;90.82
51468;BME280;37545;45.302;-122.946;2023-03-15T08:25:15;100772.00;;;4.14;91.16
51468;BME280;37545;45.302;-122.946;2023-03-15T08:27:46;100771.84;;;4.11;91.61
51468;BME280;37545;45.302;-122.946;2023-03-15T08:30:15;100776.00;;;4.09;91.17
51468;BME280;37545;45.302;-122.946;2023-03-15T08:32:45;100782.66;;;4.06;90.80
51468;BME280;37545;45.302;-122.946;2023-03-15T08:35:15;100786.00;;;4.05;91.16
51468;BME280;37545;45.302;-122.946;2023-03-15T08:37:43;100788.44;;;4.03;90.55
51468;BME280;37545;45.302;-122.946;2023-03-15T08:40:13;100800.22;;;3.99;89.63
51468;BME280;37545;45.302;-122.946;2023-03-15T08:42:45;100804.38;;;3.97;90.10
51468;BME280;37545;45.302;-122.946;2023-03-15T08:45:14;100807.53;;;3.93;90.44
51468;BME280;37545;45.302;-122.946;2023-03-15T08:47:43;100809.13;;;3.91;90.42
51468;BME280;37545;45.302;-122.946;2023-03-15T08:50:13;100820.00;;;3.87;90.50
51468;BME280;37545;45.302;-122.946;2023-03-15T08:52:42;100819.47;;;3.78;91.64
51468;BME280;37545;45.302;-122.946;2023-03-15T08:55:11;100834.75;;;3.76;92.29
51468;BME280;37545;45.302;-122.946;2023-03-15T08:57:40;100842.41;;;3.76;92.39
51468;BME280;37545;45.302;-122.946;2023-03-15T09:00:12;100850.97;;;3.77;91.75
51468;BME280;37545;45.302;-122.946;2023-03-15T09:02:46;100856.09;;;3.77;92.25
51468;BME280;37545;45.302;-122.946;2023-03-15T09:05:15;100842.84;;;3.69;92.53
51468;BME280;37545;45.302;-122.946;2023-03-15T09:07:44;100866.31;;;3.77;92.46
51468;BME280;37545;45.302;-122.946;2023-03-15T09:12:43;100874.44;;;3.70;93.81
51468;BME280;37545;45.302;-122.946;2023-03-15T09:15:14;100884.06;;;3.74;93.78
51468;BME280;37545;45.302;-122.946;2023-03-15T09:17:42;100889.19;;;3.74;93.73
51468;BME280;37545;45.302;-122.946;2023-03-15T09:20:12;100904.53;;;3.74;93.67
51468;BME280;37545;45.302;-122.946;2023-03-15T09:22:42;100903.75;;;3.75;94.58
51468;BME280;37545;45.302;-122.946;2023-03-15T09:25:10;100912.41;;;3.77;95.13
51468;BME280;37545;45.302;-122.946;2023-03-15T09:27:39;100917.69;;;3.80;95.23
51468;BME280;37545;45.302;-122.946;2023-03-15T09:30:08;100917.69;;;3.80;94.29
51468;BME280;37545;45.302;-122.946;2023-03-15T09:32:39;100920.25;;;3.80;94.32
51468;BME280;37545;45.302;-122.946;2023-03-15T09:35:17;100929.53;;;3.78;94.16
51468;BME280;37545;45.302;-122.946;2023-03-15T09:37:46;100935.53;;;3.78;94.49
51468;BME280;37545;45.302;-122.946;2023-03-15T09:40:18;100948.22;;;3.77;94.73
51468;BME280;37545;45.302;-122.946;2023-03-15T09:43:02;100950.06;;;3.80;96.28
51468;BME280;37545;45.302;-122.946;2023-03-15T09:45:49;100963.75;;;3.80;97.15
51468;BME280;37545;45.302;-122.946;2023-03-15T09:48:26;100967.81;;;3.76;97.62
51468;BME280;37545;45.302;-122.946;2023-03-15T09:51:01;100978.94;;;3.77;97.36
51468;BME280;37545;45.302;-122.946;2023-03-15T09:53:34;100973.81;;;3.77;98.58
51468;BME280;37545;45.302;-122.946;2023-03-15T09:56:18;100976.66;;;3.82;98.05
51468;BME280;37545;45.302;-122.946;2023-03-15T09:58:50;100984.50;;;3.85;98.25
51468;BME280;37545;45.302;-122.946;2023-03-15T10:01:24;100987.34;;;3.89;98.62
51468;BME280;37545;45.302;-122.946;2023-03-15T10:04:03;100989.31;;;3.93;98.35
51468;BME280;37545;45.302;-122.946;2023-03-15T10:06:36;100996.38;;;3.97;98.45
51468;BME280;37545;45.302;-122.946;2023-03-15T10:09:14;101004.22;;;4.01;98.03
51468;BME280;37545;45.302;-122.946;2023-03-15T10:11:48;101016.44;;;4.05;99.20
51468;BME280;37545;45.302;-122.946;2023-03-15T10:14:27;101020.94;;;4.09;99.60
51468;BME280;37545;45.302;-122.946;2023-03-15T10:17:02;101023.69;;;4.12;99.24
51468;BME280;37545;45.302;-122.946;2023-03-15T10:19:39;101030.75;;;4.16;100.00
51468;BME280;37545;45.302;-122.946;2023-03-15T10:22:18;101025.91;;;4.20;100.00
51468;BME280;37545;45.302;-122.946;2023-03-15T10:24:50;101017.50;;;4.08;100.00
51468;BME280;37545;45.302;-122.946;2023-03-15T10:27:21;101027.06;;;4.11;100.00
51468;BME280;37545;45.302;-122.946;2023-03-15T10:29:55;101026.88;;;4.08;100.00
51468;BME280;37545;45.302;-122.946;2023-03-15T10:32:26;101025.09;;;4.07;100.00
51468;BME280;37545;45.302;-122.946;2023-03-15T10:34:57;101030.75;;;4.01;100.00
51468;BME280;37545;45.302;-122.946;2023-03-15T10:37:26;101031.41;;;3.98;100.00
51468;BME280;37545;45.302;-122.946;2023-03-15T10:39:56;101031.41;;;3.98;100.00
51468;BME280;37545;45.302;-122.946;2023-03-15T10:42:32;101032.31;;;3.99;100.00
51468;BME280;37545;45.302;-122.946;2023-03-15T10:45:12;101040.28;;;4.04;100.00
51468;BME280;37545;45.302;-122.946;2023-03-15T10:47:43;101034.56;;;4.08;100.00
51468;BME280;37545;45.302;-122.946;2023-03-15T10:50:17;101034.72;;;4.11;100.00
51468;BME280;37545;45.302;-122.946;2023-03-15T10:52:55;101034.84;;;4.12;100.00
51468;BME280;37545;45.302;-122.946;2023-03-15T10:55:31;101043.56;;;4.16;100.00
51468;BME280;37545;45.302;-122.946;2023-03-15T10:58:20;101054.97;;;4.21;100.00
51468;BME280;37545;45.302;-122.946;2023-03-15T11:00:51;101056.91;;;4.25;100.00
51468;BME280;37545;45.302;-122.946;2023-03-15T11:03:22;101060.56;;;4.29;100.00
51468;BME280;37545;45.302;-122.946;2023-03-15T11:05:54;101066.66;;;4.31;100.00
51468;BME280;37545;45.302;-122.946;2023-03-15T11:08:26;101080.41;;;4.33;100.00
51468;BME280;37545;45.302;-122.946;2023-03-15T11:11:03;101078.78;;;4.33;100.00
51468;BME280;37545;45.302;-122.946;2023-03-15T11:13:33;101083.09;;;4.34;100.00
51468;BME280;37545;45.302;-122.946;2023-03-15T11:16:04;101089.19;;;4.36;100.00
51468;BME280;37545;45.302;-122.946;2023-03-15T11:18:36;101085.81;;;4.37;100.00
51468;BME280;37545;45.302;-122.946;2023-03-15T11:21:13;101085.91;;;4.39;100.00
51468;BME280;37545;45.302;-122.946;2023-03-15T11:23:45;101096.34;;;4.42;100.00
51468;BME280;37545;45.302;-122.946;2023-03-15T11:26:16;101096.34;;;4.42;100.00
51468;BME280;37545;45.302;-122.946;2023-03-15T11:28:48;101099.97;;;4.46;100.00
51468;BME280;37545;45.302;-122.946;2023-03-15T11:31:18;101107.66;;;4.46;100.00
51468;BME280;37545;45.302;-122.946;2023-03-15T11:33:51;101111.22;;;4.48;100.00
51468;BME280;37545;45.302;-122.946;2023-03-15T11:36:25;101116.50;;;4.51;100.00
51468;BME280;37545;45.302;-122.946;2023-03-15T11:38:55;101120.94;;;4.53;100.00
51468;BME280;37545;45.302;-122.946;2023-03-15T11:41:31;101122.81;;;4.56;100.00
51468;BME280;37545;45.302;-122.946;2023-03-15T11:44:09;101133.34;;;4.60;100.00
51468;BME280;37545;45.302;-122.946;2023-03-15T11:46:51;101136.94;;;4.64;100.00
51468;BME280;37545;45.302;-122.946;2023-03-15T11:49:39;101145.00;;;4.70;100.00
51468;BME280;37545;45.302;-122.946;2023-03-15T11:52:12;101155.44;;;4.73;100.00
51468;BME280;37545;45.302;-122.946;2023-03-15T11:54:43;101153.84;;;4.75;100.00
51468;BME280;37545;45.302;-122.946;2023-03-15T11:57:41;101156.59;;;4.78;100.00
51468;BME280;37545;45.302;-122.946;2023-03-15T12:03:29;101164.47;;;4.81;100.00
51468;BME280;37545;45.302;-122.946;2023-03-15T12:06:05;101163.94;;;4.87;100.00
51468;BME280;37545;45.302;-122.946;2023-03-15T12:08:46;101162.25;;;4.88;100.00
51468;BME280;37545;45.302;-122.946;2023-03-15T12:11:38;101169.69;;;4.83;100.00
51468;BME280;37545;45.302;-122.946;2023-03-15T12:14:25;101157.22;;;4.74;100.00
51468;BME280;37545;45.302;-122.946;2023-03-15T12:20:11;101185.88;;;4.82;100.00
51468;BME280;37545;45.302;-122.946;2023-03-15T12:22:49;101192.69;;;4.81;100.00
51468;BME280;37545;45.302;-122.946;2023-03-15T12:25:24;101193.66;;;4.83;100.00
51468;BME280;37545;45.302;-122.946;2023-03-15T12:27:57;101204.19;;;4.88;100.00
51468;BME280;37545;45.302;-122.946;2023-03-15T12:30:31;101199.34;;;4.93;100.00
51468;BME280;37545;45.302;-122.946;2023-03-15T12:33:01;101209.75;;;4.96;100.00
51468;BME280;37545;45.302;-122.946;2023-03-15T12:35:37;101211.72;;;5.00;100.00
51468;BME280;37545;45.302;-122.946;2023-03-15T12:38:11;101222.97;;;5.02;100.00
51468;BME280;37545;45.302;-122.946;2023-03-15T12:40:49;101219.50;;;5.01;100.00
51468;BME280;37545;45.302;-122.946;2023-03-15T12:43:39;101230.66;;;5.02;100.00
51468;BME280;37545;45.302;-122.946;2023-03-15T12:49:32;101243.47;;;5.02;100.00
51468;BME280;37545;45.302;-122.946;2023-03-15T12:52:03;101245.13;;;5.01;100.00
51468;BME280;37545;45.302;-122.946;2023-03-15T12:54:39;101244.19;;;4.99;100.00
51468;BME280;37545;45.302;-122.946;2023-03-15T12:57:12;101256.09;;;4.99;100.00
51468;BME280;37545;45.302;-122.946;2023-03-15T12:59:45;101264.59;;;4.98;100.00